sensor_id;sensor_type;location;lat;lon;timestamp;P1;durP1;ratioP1;P2;durP2;ratioP2
64342;SDS011;50675;53.530;-6.312;2023-07-30T06:40:03;4.35;;;1.30;;
64342;SDS011;50675;53.530;-6.312;2023-07-30T06:42:31;3.08;;;1.33;;
64342;SDS011;50675;53.530;-6.312;2023-07-30T06:47:22;4.80;;;1.73;;
64342;SDS011;50675;53.530;-6.312;2023-07-30T06:49:54;6.53;;;1.63;;
64342;SDS011;50675;53.530;-6.312;2023-07-30T06:52:20;4.97;;;1.38;;
64342;SDS011;50675;53.530;-6.312;2023-07-30T06:57:38;2.80;;;1.10;;
64342;SDS011;50675;53.530;-6.312;2023-07-30T07:00:25;3.97;;;1.33;;
64342;SDS011;50675;53.530;-6.312;2023-07-30T07:02:50;7.57;;;1.55;;
64342;SDS011;50675;53.530;-6.312;2023-07-30T07:05:28;4.78;;;1.25;;
64342;SDS011;50675;53.530;-6.312;2023-07-30T07:07:54;7.65;;;1.50;;
64342;SDS011;50675;53.530;-6.312;2023-07-30T07:10:20;4.40;;;1.10;;
64342;SDS011;50675;53.530;-6.312;2023-07-30T07:12:46;4.40;;;1.30;;
64342;SDS011;50675;53.530;-6.312;2023-07-30T07:15:12;4.30;;;1.30;;
64342;SDS011;50675;53.530;-6.312;2023-07-30T07:17:39;6.45;;;1.30;;
64342;SDS011;50675;53.530;-6.312;2023-07-30T07:20:05;4.80;;;1.13;;
64342;SDS011;50675;53.530;-6.312;2023-07-30T07:22:32;5.05;;;1.10;;
64342;SDS011;50675;53.530;-6.312;2023-07-30T07:25:14;3.45;;;1.55;;
64342;SDS011;50675;53.530;-6.312;2023-07-30T07:27:43;4.47;;;1.50;;
64342;SDS011;50675;53.530;-6.312;2023-07-30T07:30:09;2.90;;;1.33;;
64342;SDS011;50675;53.530;-6.312;2023-07-30T07:32:35;5.93;;;1.27;;
64342;SDS011;50675;53.530;-6.312;2023-07-30T07:35:04;4.40;;;1.00;;
64342;SDS011;50675;53.530;-6.312;2023-07-30T07:37:31;3.58;;;1.20;;
64342;SDS011;50675;53.530;-6.312;2023-07-30T07:40:09;6.22;;;1.20;;
64342;SDS011;50675;53.530;-6.312;2023-07-30T07:42:35;5.20;;;1.33;;
64342;SDS011;50675;53.530;-6.312;2023-07-30T07:45:21;3.95;;;1.20;;
64342;SDS011;50675;53.530;-6.312;2023-07-30T07:47:46;3.00;;;1.23;;
64342;SDS011;50675;53.530;-6.312;2023-07-30T07:50:24;4.10;;;1.40;;
64342;SDS011;50675;53.530;-6.312;2023-07-30T07:52:50;3.88;;;1.00;;
64342;SDS011;50675;53.530;-6.312;2023-07-30T07:55:16;3.70;;;1.05;;
64342;SDS011;50675;53.530;-6.312;2023-07-30T07:57:42;5.30;;;1.40;;
64342;SDS011;50675;53.530;-6.312;2023-07-30T08:00:08;3.60;;;1.20;;
64342;SDS011;50675;53.530;-6.312;2023-07-30T08:02:35;4.65;;;0.82;;
64342;SDS011;50675;53.530;-6.312;2023-07-30T08:05:03;7.28;;;1.23;;
64342;SDS011;50675;53.530;-6.312;2023-07-30T08:07:29;8.38;;;1.70;;
64342;SDS011;50675;53.530;-6.312;2023-07-30T08:09:55;3.33;;;1.10;;
64342;SDS011;50675;53.530;-6.312;2023-07-30T08:12:21;6.07;;;1.10;;
64342;SDS011;50675;53.530;-6.312;2023-07-30T08:14:46;4.55;;;1.30;;
64342;SDS011;50675;53.530;-6.312;2023-07-30T08:17:12;4.10;;;1.13;;
64342;SDS011;50675;53.530;-6.312;2023-07-30T08:19:38;3.33;;;0.80;;
64342;SDS011;50675;53.530;-6.312;2023-07-30T08:22:03;4.32;;;1.73;;
64342;SDS011;50675;53.530;-6.312;2023-07-30T08:24:29;4.78;;;1.17;;
64342;SDS011;50675;53.530;-6.312;2023-07-30T08:27:07;5.97;;;1.30;;
64342;SDS011;50675;53.530;-6.312;2023-07-30T08:29:33;2.28;;;1.00;;
64342;SDS011;50675;53.530;-6.312;2023-07-30T08:31:59;4.13;;;1.20;;
64342;SDS011;50675;53.530;-6.312;2023-07-30T08:34:25;2.47;;;1.08;;
64342;SDS011;50675;53.530;-6.312;2023-07-30T08:39:26;5.40;;;1.45;;
64342;SDS011;50675;53.530;-6.312;2023-07-30T08:44:53;5.78;;;1.23;;
64342;SDS011;50675;53.530;-6.312;2023-07-30T08:47:27;2.97;;;1.00;;
64342;SDS011;50675;53.530;-6.312;2023-07-30T08:49:54;2.67;;;1.00;;
64342;SDS011;50675;53.530;-6.312;2023-07-30T08:52:25;5.45;;;1.30;;
64342;SDS011;50675;53.530;-6.312;2023-07-30T08:54:57;4.78;;;1.25;;
64342;SDS011;50675;53.530;-6.312;2023-07-30T08:57:27;3.80;;;1.02;;
64342;SDS011;50675;53.530;-6.312;2023-07-30T09:02:53;4.15;;;1.30;;
64342;SDS011;50675;53.530;-6.312;2023-07-30T09:05:22;6.53;;;1.23;;
64342;SDS011;50675;53.530;-6.312;2023-07-30T09:07:52;3.90;;;1.20;;
64342;SDS011;50675;53.530;-6.312;2023-07-30T09:10:20;4.32;;;1.40;;
64342;SDS011;50675;53.530;-6.312;2023-07-30T09:12:54;4.90;;;1.33;;
64342;SDS011;50675;53.530;-6.312;2023-07-30T09:15:30;4.13;;;1.20;;
64342;SDS011;50675;53.530;-6.312;2023-07-30T09:21:47;5.93;;;2.57;;
64342;SDS011;50675;53.530;-6.312;2023-07-30T09:24:21;5.18;;;1.02;;
64342;SDS011;50675;53.530;-6.312;2023-07-30T09:26:54;5.03;;;0.90;;
64342;SDS011;50675;53.530;-6.312;2023-07-30T09:29:23;5.97;;;1.30;;
64342;SDS011;50675;53.530;-6.312;2023-07-30T09:37:38;2.83;;;0.90;;
64342;SDS011;50675;53.530;-6.312;2023-07-30T09:40:10;1.98;;;0.70;;
64342;SDS011;50675;53.530;-6.312;2023-07-30T09:42:43;5.47;;;1.40;;
64342;SDS011;50675;53.530;-6.312;2023-07-30T09:45:20;8.98;;;1.55;;
64342;SDS011;50675;53.530;-6.312;2023-07-30T09:47:49;3.72;;;0.90;;
64342;SDS011;50675;53.530;-6.312;2023-07-30T09:50:17;2.53;;;1.00;;
64342;SDS011;50675;53.530;-6.312;2023-07-30T09:52:44;2.33;;;0.82;;
64342;SDS011;50675;53.530;-6.312;2023-07-30T09:55:11;6.28;;;1.30;;
64342;SDS011;50675;53.530;-6.312;2023-07-30T09:57:38;2.65;;;0.82;;
64342;SDS011;50675;53.530;-6.312;2023-07-30T10:00:05;2.00;;;0.77;;
64342;SDS011;50675;53.530;-6.312;2023-07-30T10:02:35;3.15;;;0.80;;
64342;SDS011;50675;53.530;-6.312;2023-07-30T10:05:07;2.22;;;0.88;;
64342;SDS011;50675;53.530;-6.312;2023-07-30T10:07:35;2.45;;;0.88;;
64342;SDS011;50675;53.530;-6.312;2023-07-30T10:10:04;5.78;;;1.17;;
64342;SDS011;50675;53.530;-6.312;2023-07-30T10:12:32;3.60;;;0.82;;
64342;SDS011;50675;53.530;-6.312;2023-07-30T10:15:00;5.13;;;0.80;;
64342;SDS011;50675;53.530;-6.312;2023-07-30T10:17:27;2.53;;;1.00;;
64342;SDS011;50675;53.530;-6.312;2023-07-30T10:19:56;4.47;;;1.20;;
64342;SDS011;50675;53.530;-6.312;2023-07-30T10:22:23;13.07;;;2.63;;
64342;SDS011;50675;53.530;-6.312;2023-07-30T10:30:16;3.10;;;1.20;;
64342;SDS011;50675;53.530;-6.312;2023-07-30T10:54:51;6.22;;;1.92;;
64342;SDS011;50675;53.530;-6.312;2023-07-30T11:01:39;8.57;;;2.28;;
64342;SDS011;50675;53.530;-6.312;2023-07-30T11:05:24;5.55;;;2.08;;
64342;SDS011;50675;53.530;-6.312;2023-07-30T11:20:22;6.15;;;2.05;;
64342;SDS011;50675;53.530;-6.312;2023-07-30T11:29:20;6.90;;;2.28;;
64342;SDS011;50675;53.530;-6.312;2023-07-30T11:38:50;4.05;;;2.25;;
64342;SDS011;50675;53.530;-6.312;2023-07-30T11:43:46;6.57;;;2.35;;
64342;SDS011;50675;53.530;-6.312;2023-07-30T11:46:12;5.57;;;2.38;;
64342;SDS011;50675;53.530;-6.312;2023-07-30T11:48:41;4.55;;;2.15;;
64342;SDS011;50675;53.530;-6.312;2023-07-30T11:51:22;5.93;;;2.38;;
64342;SDS011;50675;53.530;-6.312;2023-07-30T11:53:52;4.13;;;2.10;;
64342;SDS011;50675;53.530;-6.312;2023-07-30T11:56:18;6.68;;;2.70;;
64342;SDS011;50675;53.530;-6.312;2023-07-30T11:58:47;4.53;;;2.30;;
64342;SDS011;50675;53.530;-6.312;2023-07-30T12:01:14;5.13;;;2.05;;
64342;SDS011;50675;53.530;-6.312;2023-07-30T12:03:47;3.15;;;1.88;;
64342;SDS011;50675;53.530;-6.312;2023-07-30T12:06:31;4.82;;;2.20;;
64342;SDS011;50675;53.530;-6.312;2023-07-30T12:09:27;4.05;;;1.80;;
64342;SDS011;50675;53.530;-6.312;2023-07-30T12:11:56;4.50;;;1.83;;
64342;SDS011;50675;53.530;-6.312;2023-07-30T12:14:43;4.18;;;2.13;;
64342;SDS011;50675;53.530;-6.312;2023-07-30T12:17:17;5.07;;;2.15;;
64342;SDS011;50675;53.530;-6.312;2023-07-30T12:19:43;6.13;;;1.90;;
64342;SDS011;50675;53.530;-6.312;2023-07-30T12:22:11;4.90;;;2.63;;
64342;SDS011;50675;53.530;-6.312;2023-07-30T12:24:37;8.30;;;2.20;;
64342;SDS011;50675;53.530;-6.312;2023-07-30T12:27:03;5.03;;;2.13;;
64342;SDS011;50675;53.530;-6.312;2023-07-30T12:29:29;8.10;;;2.72;;
64342;SDS011;50675;53.530;-6.312;2023-07-30T12:31:55;6.65;;;2.15;;
64342;SDS011;50675;53.530;-6.312;2023-07-30T12:34:24;6.10;;;2.40;;
64342;SDS011;50675;53.530;-6.312;2023-07-30T12:36:50;3.90;;;1.80;;
64342;SDS011;50675;53.530;-6.312;2023-07-30T12:39:16;5.35;;;1.95;;
64342;SDS011;50675;53.530;-6.312;2023-07-30T12:41:42;5.85;;;2.45;;
64342;SDS011;50675;53.530;-6.312;2023-07-30T12:44:07;5.43;;;2.03;;
64342;SDS011;50675;53.530;-6.312;2023-07-30T12:46:34;5.40;;;2.08;;
64342;SDS011;50675;53.530;-6.312;2023-07-30T14:30:14;3.03;;;1.48;;
64342;SDS011;50675;53.530;-6.312;2023-07-30T15:05:33;4.28;;;1.48;;
64342;SDS011;50675;53.530;-6.312;2023-07-30T16:23:56;4.38;;;2.25;;
64342;SDS011;50675;53.530;-6.312;2023-07-30T16:26:54;4.50;;;2.40;;
64342;SDS011;50675;53.530;-6.312;2023-07-30T16:33:51;5.22;;;2.50;;
64342;SDS011;50675;53.530;-6.312;2023-07-30T18:45:40;3.90;;;1.73;;
64342;SDS011;50675;53.530;-6.312;2023-07-30T19:01:10;2.67;;;1.60;;
64342;SDS011;50675;53.530;-6.312;2023-07-30T19:04:09;3.92;;;1.50;;
64342;SDS011;50675;53.530;-6.312;2023-07-30T19:17:46;1.73;;;1.40;;
64342;SDS011;50675;53.530;-6.312;2023-07-30T19:25:58;2.72;;;1.58;;
64342;SDS011;50675;53.530;-6.312;2023-07-30T19:31:09;4.93;;;2.00;;
64342;SDS011;50675;53.530;-6.312;2023-07-30T19:36:45;5.22;;;1.67;;
